createdAt,value
2017-09-26T00:00:07.330Z,27.50
2017-09-26T00:02:34.019Z,28.97
2017-09-26T00:05:00.394Z,30.60
2017-09-26T00:07:26.796Z,31.77
2017-09-26T00:09:53.931Z,33.70
2017-09-26T00:12:21.815Z,35.20
2017-09-26T00:14:48.198Z,36.40
2017-09-26T00:17:14.633Z,36.30
2017-09-26T00:19:41.041Z,36.53
2017-09-26T00:22:07.451Z,36.40
2017-09-26T00:24:35.511Z,37.77
2017-09-26T00:27:02.659Z,36.70
2017-09-26T00:29:29.048Z,36.47
2017-09-26T00:31:55.467Z,33.57
2017-09-26T00:34:21.899Z,37.30
2017-09-26T00:36:49.036Z,30.50
2017-09-26T00:39:16.935Z,31.90
2017-09-26T00:41:43.382Z,34.33
2017-09-26T00:44:10.523Z,36.00
2017-09-26T00:46:38.916Z,39.97
2017-09-26T00:49:05.535Z,35.33
2017-09-26T00:51:31.964Z,33.80
2017-09-26T00:53:58.406Z,33.20
2017-09-26T00:56:24.872Z,31.90
2017-09-26T00:58:51.284Z,31.30
2017-09-26T01:01:20.607Z,34.43
2017-09-26T01:03:51.004Z,32.90
2017-09-26T01:06:18.207Z,32.80
2017-09-26T01:08:44.630Z,35.07
2017-09-26T01:11:11.770Z,36.83
2017-09-26T01:13:38.180Z,35.27
2017-09-26T01:16:04.599Z,33.40
2017-09-26T01:18:30.994Z,33.10
2017-09-26T01:20:58.176Z,38.67
2017-09-26T01:23:24.599Z,36.07
2017-09-26T01:25:50.995Z,31.00
2017-09-26T01:28:17.383Z,37.73
2017-09-26T01:30:44.584Z,34.77
2017-09-26T01:33:11.684Z,36.07
2017-09-26T01:35:38.238Z,32.83
2017-09-26T01:38:05.393Z,34.30
2017-09-26T01:43:32.815Z,35.50
2017-09-26T01:45:59.207Z,33.30
2017-09-26T01:48:25.616Z,34.50
2017-09-26T01:50:52.003Z,35.57
2017-09-26T01:53:18.424Z,34.47
2017-09-26T01:55:45.594Z,34.70
2017-09-26T02:01:15.559Z,31.87
2017-09-26T02:03:42.037Z,29.40
2017-09-26T02:06:08.436Z,31.03
2017-09-26T02:08:35.587Z,31.43
2017-09-26T02:11:01.992Z,29.50
2017-09-26T02:13:28.395Z,35.97
2017-09-26T02:15:55.521Z,32.20
2017-09-26T02:18:21.915Z,29.00
2017-09-26T02:20:48.292Z,25.50
2017-09-26T02:23:14.706Z,27.27
2017-09-26T02:25:41.400Z,25.00
2017-09-26T02:28:07.818Z,25.00
2017-09-26T02:30:34.226Z,25.23
2017-09-26T02:33:01.383Z,24.07
2017-09-26T02:35:27.813Z,24.63
2017-09-26T02:37:54.931Z,25.23
2017-09-26T02:40:21.345Z,22.97
2017-09-26T02:42:47.719Z,25.53
2017-09-26T02:45:14.122Z,23.23
2017-09-26T02:47:41.303Z,23.93
2017-09-26T02:50:08.658Z,24.90
2017-09-26T02:52:35.058Z,21.43
2017-09-26T02:55:01.486Z,23.33
2017-09-26T02:57:27.911Z,24.60
2017-09-26T02:59:54.330Z,25.33
2017-09-26T03:02:20.760Z,24.07
2017-09-26T03:04:47.231Z,22.70
2017-09-26T03:07:13.603Z,26.33
2017-09-26T03:09:39.983Z,28.60
2017-09-26T03:12:07.108Z,24.80
2017-09-26T03:14:33.489Z,25.10
2017-09-26T03:16:59.876Z,26.40
2017-09-26T03:19:26.239Z,25.50
2017-09-26T03:21:52.630Z,26.33
2017-09-26T03:24:19.739Z,26.10
2017-09-26T03:26:46.142Z,24.80
2017-09-26T03:29:13.234Z,25.77
2017-09-26T03:31:39.642Z,23.80
2017-09-26T03:34:06.032Z,23.47
2017-09-26T03:36:32.509Z,25.03
2017-09-26T03:38:58.989Z,22.50
2017-09-26T03:41:25.364Z,21.70
2017-09-26T03:43:51.774Z,21.10
2017-09-26T03:46:18.922Z,22.53
2017-09-26T03:48:46.051Z,22.23
2017-09-26T03:51:12.433Z,22.40
2017-09-26T03:53:39.673Z,23.33
2017-09-26T03:56:06.052Z,25.00
2017-09-26T03:58:32.514Z,26.00
2017-09-26T04:00:59.007Z,23.33
2017-09-26T04:03:25.459Z,21.27
2017-09-26T04:05:51.901Z,20.13
2017-09-26T04:08:19.080Z,18.83
2017-09-26T04:10:45.537Z,25.30
2017-09-26T04:13:11.947Z,23.20
2017-09-26T04:15:38.379Z,23.60
2017-09-26T04:18:05.536Z,23.67
2017-09-26T04:20:31.962Z,23.13
2017-09-26T04:22:58.550Z,23.70
2017-09-26T04:25:25.735Z,20.30
2017-09-26T04:27:52.189Z,23.33
2017-09-26T04:30:18.653Z,26.03
2017-09-26T04:32:45.090Z,24.17
2017-09-26T04:35:11.500Z,25.97
2017-09-26T04:37:37.900Z,26.90
2017-09-26T04:40:04.299Z,25.40
2017-09-26T04:42:31.597Z,31.30
2017-09-26T04:44:58.034Z,23.67
2017-09-26T04:47:24.430Z,27.40
2017-09-26T04:49:50.803Z,29.67
2017-09-26T04:52:17.217Z,25.97
2017-09-26T04:54:43.609Z,24.73
2017-09-26T04:57:10.062Z,26.40
2017-09-26T04:59:36.710Z,24.80
2017-09-26T05:02:03.162Z,27.37
2017-09-26T05:04:29.644Z,25.40
2017-09-26T05:06:56.023Z,25.40
2017-09-26T05:09:22.447Z,22.17
2017-09-26T05:11:48.820Z,25.40
2017-09-26T05:14:15.959Z,27.03
2017-09-26T05:16:42.308Z,21.87
2017-09-26T05:19:08.903Z,25.37
2017-09-26T05:21:35.404Z,26.40
2017-09-26T05:24:02.571Z,25.37
2017-09-26T05:26:28.977Z,29.27
2017-09-26T05:28:55.386Z,26.17
2017-09-26T05:31:22.490Z,27.60
2017-09-26T05:33:48.966Z,26.17
2017-09-26T05:36:15.342Z,26.77
2017-09-26T05:38:42.909Z,30.80
2017-09-26T05:41:10.072Z,30.33
2017-09-26T05:43:37.226Z,30.60
2017-09-26T05:46:06.462Z,29.20
2017-09-26T05:48:32.978Z,30.20
2017-09-26T05:50:59.480Z,31.83
2017-09-26T05:53:25.950Z,31.00
2017-09-26T05:55:52.367Z,28.87
2017-09-26T05:58:18.739Z,24.07
2017-09-26T06:00:45.131Z,29.60
2017-09-26T06:03:12.276Z,28.60
2017-09-26T06:05:38.680Z,30.77
2017-09-26T06:08:05.099Z,32.80
2017-09-26T06:10:32.252Z,31.27
2017-09-26T06:12:59.459Z,29.73
2017-09-26T06:15:25.832Z,26.97
2017-09-26T06:17:52.199Z,27.03
2017-09-26T06:20:19.350Z,28.57
2017-09-26T06:22:45.739Z,29.03
2017-09-26T06:25:12.856Z,28.83
2017-09-26T06:27:39.245Z,30.13
2017-09-26T06:30:06.434Z,27.30
2017-09-26T06:32:32.956Z,26.03
2017-09-26T06:34:59.417Z,27.40
2017-09-26T06:37:25.836Z,27.63
2017-09-26T06:39:52.979Z,25.20
2017-09-26T06:42:19.412Z,26.13
2017-09-26T06:44:46.801Z,26.30
2017-09-26T06:47:13.215Z,26.57
2017-09-26T06:49:39.599Z,26.20
2017-09-26T06:52:05.993Z,24.57
2017-09-26T06:54:33.145Z,26.80
2017-09-26T06:56:59.558Z,23.77
2017-09-26T06:59:25.970Z,25.17
2017-09-26T07:01:53.098Z,26.10
2017-09-26T07:04:20.280Z,24.37
2017-09-26T07:06:47.590Z,28.40
2017-09-26T07:09:14.038Z,26.47
2017-09-26T07:11:40.389Z,27.20
2017-09-26T07:14:06.806Z,24.90
2017-09-26T07:16:33.168Z,25.60
2017-09-26T07:18:59.545Z,26.63
2017-09-26T07:21:25.924Z,24.53
2017-09-26T07:23:52.320Z,25.70
2017-09-26T07:26:18.740Z,28.50
2017-09-26T07:28:45.138Z,26.80
2017-09-26T07:31:11.834Z,26.27
2017-09-26T07:33:38.968Z,23.83
2017-09-26T07:36:05.345Z,22.30
2017-09-26T07:38:31.712Z,23.67
2017-09-26T07:40:58.133Z,21.30
2017-09-26T07:43:25.248Z,21.30
2017-09-26T07:45:51.794Z,22.57
2017-09-26T07:48:19.730Z,22.83
2017-09-26T07:50:46.139Z,24.43
2017-09-26T07:53:13.291Z,21.90
2017-09-26T07:55:39.684Z,21.60
2017-09-26T07:58:06.105Z,22.07
2017-09-26T08:00:33.544Z,24.27
2017-09-26T08:02:59.927Z,22.00
2017-09-26T08:05:26.860Z,22.10
2017-09-26T08:07:54.644Z,23.20
2017-09-26T08:10:21.789Z,22.80
2017-09-26T08:12:48.132Z,20.40
2017-09-26T08:15:14.527Z,20.40
2017-09-26T08:17:41.877Z,21.30
2017-09-26T08:20:08.284Z,20.67
2017-09-26T08:22:34.636Z,21.67
2017-09-26T08:25:01.038Z,21.20
2017-09-26T08:27:27.614Z,21.87
2017-09-26T08:29:54.206Z,21.60
2017-09-26T08:32:20.664Z,20.30
2017-09-26T08:34:47.081Z,20.97
2017-09-26T08:37:13.432Z,20.80
2017-09-26T08:39:39.854Z,18.73
2017-09-26T08:42:06.985Z,21.40
2017-09-26T08:44:33.343Z,19.80
2017-09-26T08:46:59.689Z,21.00
2017-09-26T08:49:26.063Z,18.80
2017-09-26T08:51:53.234Z,22.57
2017-09-26T08:54:19.887Z,19.40
2017-09-26T08:56:47.057Z,19.03
2017-09-26T08:59:14.163Z,19.90
2017-09-26T09:01:40.571Z,19.87
2017-09-26T09:04:07.956Z,20.33
2017-09-26T09:06:34.436Z,20.47
2017-09-26T09:09:00.882Z,20.23
2017-09-26T09:11:27.990Z,18.50
2017-09-26T09:13:54.367Z,20.30
2017-09-26T09:16:20.821Z,22.33
2017-09-26T09:18:47.220Z,18.20
2017-09-26T09:21:28.548Z,17.83
2017-09-26T09:23:54.936Z,19.70
2017-09-26T09:26:22.068Z,17.03
2017-09-26T09:28:48.479Z,18.13
2017-09-26T09:31:14.898Z,20.23
2017-09-26T09:33:41.369Z,21.43
2017-09-26T09:36:07.760Z,19.10
2017-09-26T09:38:34.211Z,20.80
2017-09-26T09:41:00.599Z,20.07
2017-09-26T09:43:27.012Z,20.63
2017-09-26T09:45:54.204Z,20.17
2017-09-26T09:48:20.712Z,18.87
2017-09-26T09:50:47.876Z,21.10
2017-09-26T09:53:14.245Z,21.60
2017-09-26T09:55:41.434Z,22.00
2017-09-26T09:58:07.842Z,20.90
2017-09-26T10:00:34.236Z,21.33
2017-09-26T10:03:00.609Z,23.17
2017-09-26T10:05:27.005Z,20.33
2017-09-26T10:07:54.483Z,22.67
2017-09-26T10:10:21.670Z,20.53
2017-09-26T10:12:48.024Z,21.40
2017-09-26T10:15:14.408Z,21.10
2017-09-26T10:17:40.815Z,22.50
2017-09-26T10:20:07.211Z,20.97
2017-09-26T10:22:33.593Z,24.37
2017-09-26T10:25:00.090Z,21.57
2017-09-26T10:27:26.536Z,21.60
2017-09-26T10:29:53.651Z,20.57
2017-09-26T10:32:20.098Z,20.67
2017-09-26T10:34:46.517Z,21.30
2017-09-26T10:37:13.655Z,20.70
2017-09-26T10:39:40.826Z,21.53
2017-09-26T10:42:07.266Z,22.57
2017-09-26T10:44:33.620Z,21.77
2017-09-26T10:47:00.855Z,20.80
2017-09-26T10:49:27.239Z,22.33
2017-09-26T10:51:54.420Z,20.10
2017-09-26T10:54:20.824Z,20.27
2017-09-26T10:56:47.446Z,20.30
2017-09-26T10:59:13.839Z,22.00
2017-09-26T11:01:40.254Z,20.00
2017-09-26T11:04:06.603Z,20.27
2017-09-26T11:06:32.967Z,21.43
2017-09-26T11:09:00.124Z,20.00
2017-09-26T11:11:26.578Z,21.20
2017-09-26T11:13:53.711Z,19.47
2017-09-26T11:16:20.113Z,18.37
2017-09-26T11:18:46.609Z,20.70
2017-09-26T11:21:12.977Z,18.67
2017-09-26T11:23:39.429Z,18.47
2017-09-26T11:26:05.856Z,18.37
2017-09-26T11:28:32.269Z,18.20
2017-09-26T11:30:58.687Z,18.67
2017-09-26T11:33:25.069Z,18.80
2017-09-26T11:35:52.226Z,18.40
2017-09-26T11:38:18.643Z,18.07
2017-09-26T11:40:45.105Z,17.87
2017-09-26T11:43:11.555Z,18.90
2017-09-26T11:45:37.970Z,16.90
2017-09-26T11:48:04.623Z,18.33
2017-09-26T11:50:31.012Z,16.93
2017-09-26T11:52:57.352Z,18.17
2017-09-26T11:55:23.768Z,20.60
2017-09-26T11:57:50.150Z,18.63
2017-09-26T12:00:16.629Z,19.50
2017-09-26T12:02:43.734Z,23.00
2017-09-26T12:05:10.169Z,28.30
2017-09-26T12:07:36.560Z,29.00
2017-09-26T12:10:02.972Z,25.43
2017-09-26T12:12:29.468Z,28.07
2017-09-26T12:14:55.919Z,29.47
2017-09-26T12:17:23.041Z,31.27
2017-09-26T12:19:49.445Z,31.40
2017-09-26T12:22:15.911Z,33.00
2017-09-26T12:24:42.315Z,33.80
2017-09-26T12:27:10.059Z,31.27
2017-09-26T12:29:36.481Z,28.40
2017-09-26T12:32:03.036Z,30.17
2017-09-26T12:34:30.168Z,32.93
2017-09-26T12:36:56.578Z,30.90
2017-09-26T12:39:22.944Z,28.90
2017-09-26T12:41:49.399Z,30.23
2017-09-26T12:44:15.840Z,26.10
2017-09-26T12:46:42.238Z,27.80
2017-09-26T12:49:09.372Z,25.80
2017-09-26T12:51:36.519Z,28.47
2017-09-26T12:54:02.948Z,27.43
2017-09-26T12:56:29.369Z,26.20
2017-09-26T12:58:56.476Z,26.70
2017-09-26T13:01:22.820Z,23.97
2017-09-26T13:03:49.217Z,24.33
2017-09-26T13:06:16.363Z,26.10
2017-09-26T13:08:42.744Z,21.37
2017-09-26T13:11:10.584Z,20.53
2017-09-26T13:13:36.962Z,21.73
2017-09-26T13:16:03.419Z,20.30
2017-09-26T13:18:29.796Z,21.43
2017-09-26T13:20:56.161Z,20.57
2017-09-26T13:23:22.541Z,19.00
2017-09-26T13:25:48.898Z,21.03
2017-09-26T13:28:16.024Z,16.23
2017-09-26T13:30:42.380Z,15.77
2017-09-26T13:33:08.794Z,18.20
2017-09-26T13:35:35.246Z,15.90
2017-09-26T13:38:01.642Z,17.87
2017-09-26T13:40:28.043Z,17.37
2017-09-26T13:42:54.410Z,17.57
2017-09-26T13:45:20.808Z,28.83
2017-09-26T13:47:47.223Z,26.13
2017-09-26T13:50:13.630Z,26.30
2017-09-26T13:52:40.018Z,27.80
2017-09-26T13:55:06.431Z,30.10
2017-09-26T13:57:32.826Z,30.40
2017-09-26T14:00:00.064Z,42.70
2017-09-26T14:02:26.492Z,27.40
2017-09-26T14:04:52.836Z,29.73
2017-09-26T14:07:19.204Z,31.17
2017-09-26T14:09:45.535Z,35.30
2017-09-26T14:12:13.034Z,31.13
2017-09-26T14:14:39.444Z,24.07
2017-09-26T14:17:05.828Z,23.23
2017-09-26T14:19:32.962Z,22.27
2017-09-26T14:21:59.440Z,24.67
2017-09-26T14:24:25.795Z,29.00
2017-09-26T14:26:52.162Z,31.00
2017-09-26T14:29:18.557Z,28.57
2017-09-26T14:31:45.716Z,32.77
2017-09-26T14:34:12.089Z,32.20
2017-09-26T14:36:39.267Z,29.13
2017-09-26T14:39:05.621Z,30.23
2017-09-26T14:41:32.783Z,32.57
2017-09-26T14:43:59.216Z,30.90
2017-09-26T14:46:25.600Z,31.67
2017-09-26T14:48:52.723Z,30.73
2017-09-26T14:51:19.271Z,26.77
2017-09-26T14:53:45.699Z,28.67
2017-09-26T14:56:12.150Z,29.00
2017-09-26T14:58:38.562Z,29.47
2017-09-26T15:01:04.892Z,26.27
2017-09-26T15:03:31.267Z,22.83
2017-09-26T15:05:57.611Z,23.43
2017-09-26T15:08:24.030Z,25.73
2017-09-26T15:10:50.441Z,25.30
2017-09-26T15:13:16.854Z,25.50
2017-09-26T15:15:43.996Z,27.60
2017-09-26T15:18:11.111Z,28.43
2017-09-26T15:20:37.508Z,30.23
2017-09-26T15:23:03.861Z,28.53
2017-09-26T15:25:30.220Z,27.20
2017-09-26T15:27:57.330Z,27.47
2017-09-26T15:30:23.759Z,26.17
2017-09-26T15:32:50.164Z,26.33
2017-09-26T15:35:18.019Z,26.03
2017-09-26T15:37:44.368Z,23.73
2017-09-26T15:40:10.734Z,24.87
2017-09-26T15:42:37.182Z,27.67
2017-09-26T15:45:04.365Z,27.60
2017-09-26T15:47:30.712Z,24.53
2017-09-26T15:49:57.095Z,21.67
2017-09-26T15:52:23.497Z,21.80
2017-09-26T15:54:50.619Z,20.27
2017-09-26T15:57:17.007Z,20.23
2017-09-26T15:59:43.458Z,20.20
2017-09-26T16:02:09.868Z,20.20
2017-09-26T16:04:37.005Z,20.17
2017-09-26T16:07:03.401Z,19.83
2017-09-26T16:09:29.735Z,20.60
2017-09-26T16:11:56.139Z,20.40
2017-09-26T16:14:22.570Z,20.13
2017-09-26T16:16:49.037Z,19.13
2017-09-26T16:19:15.395Z,20.50
2017-09-26T16:21:41.795Z,19.30
2017-09-26T16:24:08.936Z,21.10
2017-09-26T16:26:35.352Z,21.27
2017-09-26T16:29:01.723Z,20.10
2017-09-26T16:31:28.194Z,19.80
2017-09-26T16:33:56.577Z,17.87
2017-09-26T16:36:23.959Z,21.30
2017-09-26T16:38:50.370Z,18.37
2017-09-26T16:41:16.758Z,19.50
2017-09-26T16:43:43.917Z,20.73
2017-09-26T16:46:11.064Z,20.07
2017-09-26T16:48:37.476Z,22.00
2017-09-26T16:51:04.562Z,19.80
2017-09-26T16:53:30.940Z,19.97
2017-09-26T16:55:57.329Z,18.90
2017-09-26T16:58:23.730Z,13.90
2017-09-26T17:00:50.171Z,13.90
2017-09-26T17:03:16.564Z,13.67
2017-09-26T17:05:42.923Z,16.67
2017-09-26T17:08:09.337Z,15.00
2017-09-26T17:10:35.703Z,13.50
2017-09-26T17:13:02.061Z,15.07
2017-09-26T17:15:29.212Z,13.40
2017-09-26T17:17:55.586Z,14.20
2017-09-26T17:20:21.991Z,15.23
2017-09-26T17:22:48.383Z,14.10
2017-09-26T17:25:14.786Z,13.97
2017-09-26T17:27:41.186Z,14.20
2017-09-26T17:30:07.584Z,12.13
2017-09-26T17:32:34.009Z,13.80
2017-09-26T17:35:01.488Z,12.33
2017-09-26T17:37:28.718Z,11.53
2017-09-26T17:39:55.912Z,11.77
2017-09-26T17:42:22.312Z,11.70
2017-09-26T17:44:48.867Z,11.87
2017-09-26T17:47:15.287Z,14.90
2017-09-26T17:49:42.372Z,13.50
2017-09-26T17:52:08.756Z,12.20
2017-09-26T17:54:35.089Z,12.90
2017-09-26T17:57:01.447Z,14.50
2017-09-26T17:59:27.770Z,13.20
2017-09-26T18:01:54.148Z,13.93
2017-09-26T18:04:21.224Z,15.60
2017-09-26T18:06:47.576Z,11.43
2017-09-26T18:09:13.911Z,8.97
2017-09-26T18:11:40.240Z,7.70
2017-09-26T18:14:07.296Z,7.47
2017-09-26T18:16:34.384Z,7.03
2017-09-26T18:19:00.764Z,6.03
2017-09-26T18:21:27.107Z,6.70
2017-09-26T18:23:53.469Z,6.13
2017-09-26T18:26:20.554Z,6.43
2017-09-26T18:28:46.979Z,6.67
2017-09-26T18:31:13.338Z,6.47
2017-09-26T18:33:39.751Z,6.70
2017-09-26T18:36:06.891Z,5.07
2017-09-26T18:38:33.229Z,5.77
2017-09-26T18:40:59.603Z,6.20
2017-09-26T18:43:26.011Z,5.97
2017-09-26T18:45:52.394Z,6.60
2017-09-26T18:48:18.817Z,6.60
2017-09-26T18:50:45.250Z,6.30
2017-09-26T18:53:11.611Z,5.43
2017-09-26T18:55:38.023Z,6.10
2017-09-26T18:58:04.359Z,5.90
2017-09-26T19:00:30.808Z,5.90
2017-09-26T19:02:57.165Z,5.30
2017-09-26T19:05:23.684Z,6.00
2017-09-26T19:07:50.104Z,6.10
2017-09-26T19:10:16.499Z,5.50
2017-09-26T19:12:42.799Z,5.37
2017-09-26T19:15:09.260Z,4.63
2017-09-26T19:17:35.669Z,4.40
2017-09-26T19:20:02.803Z,4.53
2017-09-26T19:22:29.215Z,5.07
2017-09-26T19:24:55.616Z,5.43
2017-09-26T19:27:22.790Z,3.83
2017-09-26T19:29:49.199Z,5.80
2017-09-26T19:32:15.627Z,4.93
2017-09-26T19:34:42.047Z,4.90
2017-09-26T19:37:08.455Z,4.83
2017-09-26T19:39:35.603Z,5.43
2017-09-26T19:42:02.818Z,5.80
2017-09-26T19:44:29.170Z,4.70
2017-09-26T19:46:55.626Z,5.47
2017-09-26T19:49:22.070Z,5.73
2017-09-26T19:51:49.244Z,4.90
2017-09-26T19:54:15.794Z,5.30
2017-09-26T19:56:42.157Z,5.07
2017-09-26T19:59:08.575Z,7.23
2017-09-26T20:01:34.988Z,6.30
2017-09-26T20:04:01.407Z,5.57
2017-09-26T20:06:28.552Z,6.07
2017-09-26T20:08:54.963Z,6.03
2017-09-26T20:11:21.339Z,5.47
2017-09-26T20:13:47.747Z,5.40
2017-09-26T20:16:14.142Z,5.33
2017-09-26T20:18:41.354Z,6.23
2017-09-26T20:21:07.952Z,5.93
2017-09-26T20:23:34.406Z,7.20
2017-09-26T20:26:00.829Z,7.03
2017-09-26T20:28:27.940Z,6.60
2017-09-26T20:30:54.307Z,6.87
2017-09-26T20:33:21.466Z,6.60
2017-09-26T20:35:47.847Z,6.60
2017-09-26T20:38:14.171Z,6.57
2017-09-26T20:40:40.540Z,6.30
2017-09-26T20:43:06.912Z,6.80
2017-09-26T20:45:33.286Z,6.73
2017-09-26T20:48:00.467Z,7.30
2017-09-26T20:50:26.816Z,7.07
2017-09-26T20:52:54.636Z,5.37
2017-09-26T20:55:21.032Z,6.97
2017-09-26T20:57:47.462Z,7.10
2017-09-26T21:00:13.899Z,6.47
2017-09-26T21:02:40.240Z,8.17
2017-09-26T21:05:06.576Z,6.70
2017-09-26T21:07:32.932Z,7.20
2017-09-26T21:09:59.294Z,6.90
2017-09-26T21:12:25.694Z,7.00
2017-09-26T21:14:52.046Z,7.90
2017-09-26T21:17:19.911Z,8.30
2017-09-26T21:19:46.480Z,8.83
2017-09-26T21:22:12.879Z,8.80
2017-09-26T21:24:39.238Z,7.80
2017-09-26T21:27:05.593Z,9.40
2017-09-26T21:29:31.963Z,7.97
2017-09-26T21:31:58.280Z,8.50
2017-09-26T21:34:24.637Z,8.07
2017-09-26T21:36:50.960Z,9.47
2017-09-26T21:39:17.323Z,8.30
2017-09-26T21:41:43.686Z,8.20
2017-09-26T21:44:10.046Z,9.20
2017-09-26T21:46:36.381Z,8.77
2017-09-26T21:49:02.798Z,9.20
2017-09-26T21:51:29.182Z,7.13
2017-09-26T21:53:56.279Z,9.33
2017-09-26T21:56:22.645Z,8.77
2017-09-26T21:58:49.011Z,9.10
2017-09-26T22:01:15.339Z,8.80
2017-09-26T22:03:41.657Z,8.80
2017-09-26T22:06:08.050Z,8.80
2017-09-26T22:08:35.136Z,8.63
2017-09-26T22:11:02.211Z,8.87
2017-09-26T22:13:28.547Z,6.80
2017-09-26T22:15:54.932Z,7.63
2017-09-26T22:18:21.275Z,9.13
2017-09-26T22:20:47.633Z,8.90
2017-09-26T22:23:14.033Z,8.13
2017-09-26T22:25:40.400Z,9.07
2017-09-26T22:28:06.743Z,7.13
2017-09-26T22:30:33.091Z,8.67
2017-09-26T22:32:59.404Z,8.50
2017-09-26T22:35:25.728Z,8.40
2017-09-26T22:37:52.059Z,8.67
2017-09-26T22:40:18.423Z,7.43
2017-09-26T22:42:44.772Z,8.80
2017-09-26T22:45:11.121Z,9.00
2017-09-26T22:47:37.475Z,8.67
2017-09-26T22:50:04.582Z,9.17
2017-09-26T22:52:31.680Z,8.23
2017-09-26T22:54:58.016Z,8.40
2017-09-26T22:57:24.407Z,9.40
2017-09-26T22:59:51.483Z,8.77
2017-09-26T23:02:17.822Z,9.70
2017-09-26T23:04:44.188Z,9.40
2017-09-26T23:07:10.537Z,10.20
2017-09-26T23:09:36.887Z,8.10
2017-09-26T23:12:03.260Z,7.80
2017-09-26T23:14:30.395Z,9.20
2017-09-26T23:16:56.744Z,9.30
2017-09-26T23:19:23.088Z,9.83
2017-09-26T23:21:49.430Z,9.00
2017-09-26T23:24:15.832Z,9.30
2017-09-26T23:26:42.235Z,11.87
2017-09-26T23:29:08.560Z,9.13
2017-09-26T23:31:34.953Z,9.40
2017-09-26T23:34:01.322Z,11.60
2017-09-26T23:36:27.692Z,10.93
2017-09-26T23:38:54.023Z,12.03
2017-09-26T23:41:21.107Z,10.93
2017-09-26T23:43:47.446Z,11.23
2017-09-26T23:46:13.802Z,11.57
2017-09-26T23:48:40.129Z,12.33
2017-09-26T23:51:06.455Z,13.80
2017-09-26T23:53:32.850Z,14.93
2017-09-26T23:55:59.212Z,14.70
2017-09-26T23:58:26.359Z,12.33
